createdAt,value
2019-02-11T00:01:57.254Z,98707.50
2019-02-11T00:04:26.683Z,98703.96
2019-02-11T00:06:56.012Z,98701.23
2019-02-11T00:09:25.362Z,98700.29
2019-02-11T00:11:54.691Z,98692.50
2019-02-11T00:14:24.053Z,98699.45
2019-02-11T00:16:53.385Z,98697.83
2019-02-11T00:19:22.736Z,98696.17
2019-02-11T00:21:52.064Z,98692.74
2019-02-11T00:24:21.491Z,98703.49
2019-02-11T00:26:50.895Z,98698.30
2019-02-11T00:29:20.255Z,98700.53
2019-02-11T00:31:49.652Z,98701.23
2019-02-11T00:34:19.085Z,98702.53
2019-02-11T00:36:48.408Z,98695.78
2019-02-11T00:39:17.975Z,98704.06
2019-02-11T00:41:47.305Z,98707.96
2019-02-11T00:44:16.655Z,98707.46
2019-02-11T00:46:46.147Z,98711.97
2019-02-11T00:49:15.994Z,98708.45
2019-02-11T00:51:45.324Z,98710.08
2019-02-11T00:54:15.067Z,98718.12
2019-02-11T00:56:44.401Z,98727.34
2019-02-11T00:59:13.759Z,98723.09
2019-02-11T01:01:43.144Z,98733.01
2019-02-11T01:04:13.023Z,98739.14
2019-02-11T01:06:42.379Z,98733.38
2019-02-11T01:09:11.707Z,98747.66
2019-02-11T01:11:41.307Z,98743.41
2019-02-11T01:14:10.634Z,98741.39
2019-02-11T01:16:39.994Z,98734.76
2019-02-11T01:19:09.317Z,98737.25
2019-02-11T01:21:38.689Z,98745.64
2019-02-11T01:24:08.022Z,98735.81
2019-02-11T01:26:37.394Z,98737.48
2019-02-11T01:29:06.760Z,98737.93
2019-02-11T01:31:36.109Z,98722.01
2019-02-11T01:34:05.438Z,98729.06
2019-02-11T01:36:34.800Z,98727.78
2019-02-11T01:39:04.799Z,98725.91
2019-02-11T01:41:34.167Z,98726.23
2019-02-11T01:44:03.496Z,98720.70
2019-02-11T01:46:32.849Z,98710.64
2019-02-11T01:49:02.173Z,98711.01
2019-02-11T01:51:31.521Z,98712.67
2019-02-11T01:54:00.856Z,98708.99
2019-02-11T01:56:30.202Z,98704.63
2019-02-11T01:58:59.523Z,98697.08
2019-02-11T02:01:28.880Z,98676.15
2019-02-11T02:03:58.674Z,98679.69
2019-02-11T02:06:28.025Z,98698.63
2019-02-11T02:08:57.341Z,98687.75
2019-02-11T02:11:26.698Z,98678.57
2019-02-11T02:13:56.094Z,98673.02
2019-02-11T02:16:25.455Z,98673.62
2019-02-11T02:18:54.783Z,98679.06
2019-02-11T02:21:24.124Z,98682.23
2019-02-11T02:23:53.448Z,98692.76
2019-02-11T02:26:22.802Z,98683.69
2019-02-11T02:28:52.128Z,98689.13
2019-02-11T02:31:21.470Z,98695.50
2019-02-11T02:33:50.794Z,98703.89
2019-02-11T02:36:20.142Z,98704.36
2019-02-11T02:38:49.464Z,98703.06
2019-02-11T02:41:18.815Z,98696.80
2019-02-11T02:43:55.164Z,98699.75
2019-02-11T02:46:19.182Z,98687.46
2019-02-11T02:48:48.500Z,98689.24
2019-02-11T02:51:17.977Z,98682.47
2019-02-11T02:53:47.307Z,98674.11
2019-02-11T02:56:16.653Z,98676.93
2019-02-11T02:58:45.974Z,98677.16
2019-02-11T03:01:15.339Z,98665.91
2019-02-11T03:03:44.660Z,98651.73
2019-02-11T03:06:14.265Z,98644.98
2019-02-11T03:08:44.022Z,98649.47
2019-02-11T03:11:13.921Z,98647.70
2019-02-11T03:13:43.342Z,98652.29
2019-02-11T03:16:12.662Z,98653.81
2019-02-11T03:18:42.013Z,98653.34
2019-02-11T03:21:11.331Z,98634.53
2019-02-11T03:23:40.691Z,98649.80
2019-02-11T03:26:10.024Z,98660.89
2019-02-11T03:28:39.373Z,98660.42
2019-02-11T03:31:08.698Z,98664.17
2019-02-11T03:33:38.040Z,98662.99
2019-02-11T03:36:07.358Z,98656.02
2019-02-11T03:38:36.711Z,98652.09
2019-02-11T03:41:06.025Z,98662.72
2019-02-11T03:43:35.398Z,98666.47
2019-02-11T03:46:04.719Z,98668.38
2019-02-11T03:48:34.072Z,98667.77
2019-02-11T03:51:03.395Z,98675.23
2019-02-11T03:53:32.756Z,98676.55
2019-02-11T03:56:02.129Z,98689.54
2019-02-11T03:58:31.528Z,98679.72
2019-02-11T04:01:00.852Z,98689.54
2019-02-11T04:03:30.210Z,98692.83
2019-02-11T04:05:59.565Z,98688.71
2019-02-11T04:08:28.874Z,98696.98
2019-02-11T04:10:58.230Z,98694.84
2019-02-11T04:13:27.549Z,98683.39
2019-02-11T04:15:56.895Z,98681.52
2019-02-11T04:18:26.228Z,98676.48
2019-02-11T04:20:55.566Z,98675.45
2019-02-11T04:23:24.886Z,98680.43
2019-02-11T04:25:54.235Z,98700.88
2019-02-11T04:28:23.553Z,98697.00
2019-02-11T04:30:52.902Z,98699.11
2019-02-11T04:33:22.228Z,98704.67
2019-02-11T04:35:51.589Z,98703.27
2019-02-11T04:38:20.892Z,98711.86
2019-02-11T04:40:50.265Z,98715.19
2019-02-11T04:43:19.568Z,98719.41
2019-02-11T04:45:48.928Z,98716.34
2019-02-11T04:48:18.255Z,98715.52
2019-02-11T04:50:48.101Z,98735.84
2019-02-11T04:53:17.419Z,98731.75
2019-02-11T04:55:46.772Z,98741.81
2019-02-11T04:58:16.088Z,98744.98
2019-02-11T05:00:47.065Z,98750.41
2019-02-11T05:03:26.219Z,98744.02
2019-02-11T05:05:55.539Z,98744.91
2019-02-11T05:08:24.858Z,98749.02
2019-02-11T05:10:54.207Z,98746.78
2019-02-11T05:13:23.555Z,98741.23
2019-02-11T05:15:55.166Z,98739.33
2019-02-11T05:18:25.780Z,98739.56
2019-02-11T05:20:56.555Z,98748.03
2019-02-11T05:23:25.910Z,98745.33
2019-02-11T05:26:04.207Z,98745.09
2019-02-11T05:28:41.666Z,98753.67
2019-02-11T05:31:11.420Z,98757.22
2019-02-11T05:33:40.743Z,98756.76
2019-02-11T05:36:12.166Z,98763.80
2019-02-11T05:38:42.773Z,98776.89
2019-02-11T05:41:12.124Z,98778.52
2019-02-11T05:43:47.415Z,98782.69
2019-02-11T05:46:16.866Z,98780.56
2019-02-11T05:48:46.187Z,98797.05
2019-02-11T05:51:16.110Z,98793.86
2019-02-11T05:53:45.476Z,98800.47
2019-02-11T05:56:15.165Z,98799.64
2019-02-11T05:58:44.514Z,98807.54
2019-02-11T06:01:14.645Z,98821.78
2019-02-11T06:03:44.273Z,98831.30
2019-02-11T06:06:13.581Z,98832.53
2019-02-11T06:08:49.021Z,98850.37
2019-02-11T06:11:20.241Z,98858.52
2019-02-11T06:13:50.705Z,98867.92
2019-02-11T06:16:26.966Z,98873.57
2019-02-11T06:19:01.762Z,98877.73
2019-02-11T06:21:40.199Z,98888.36
2019-02-11T06:24:19.095Z,98895.14
2019-02-11T06:26:55.410Z,98892.64
2019-02-11T06:29:36.408Z,98899.67
2019-02-11T06:32:12.963Z,98906.64
2019-02-11T06:34:49.727Z,98916.84
2019-02-11T06:37:22.295Z,98929.39
2019-02-11T06:39:51.666Z,98937.33
2019-02-11T06:42:20.991Z,98950.91
2019-02-11T06:44:50.347Z,98952.58
2019-02-11T06:47:19.847Z,98961.25
2019-02-11T06:49:49.198Z,98965.46
2019-02-11T06:52:18.519Z,98971.30
2019-02-11T06:54:47.878Z,98973.69
2019-02-11T06:57:17.666Z,98978.52
2019-02-11T06:59:47.022Z,98988.10
2019-02-11T07:02:16.350Z,98989.40
2019-02-11T07:04:45.717Z,99003.13
2019-02-11T07:07:18.720Z,99000.73
2019-02-11T07:09:49.913Z,99004.94
2019-02-11T07:12:19.465Z,99013.25
2019-02-11T07:14:54.437Z,99025.87
2019-02-11T07:17:27.459Z,99028.13
2019-02-11T07:19:57.657Z,99033.13
2019-02-11T07:22:32.020Z,99035.31
2019-02-11T07:25:05.164Z,99048.84
2019-02-11T07:27:34.876Z,99055.19
2019-02-11T07:30:05.383Z,99054.93
2019-02-11T07:32:35.141Z,99061.08
2019-02-11T07:35:05.856Z,99069.39
2019-02-11T07:37:35.245Z,99081.30
2019-02-11T07:40:10.431Z,99081.16
2019-02-11T07:42:44.075Z,99093.64
2019-02-11T07:45:29.691Z,99087.30
2019-02-11T07:47:53.104Z,99094.04
2019-02-11T07:50:24.922Z,99109.11
2019-02-11T07:52:54.956Z,99113.64
2019-02-11T07:55:25.111Z,99116.87
2019-02-11T07:57:57.774Z,99128.78
2019-02-11T08:00:28.603Z,99142.30
2019-02-11T08:03:00.605Z,99147.97
2019-02-11T08:05:32.580Z,99155.73
2019-02-11T08:08:02.527Z,99157.85
2019-02-11T08:10:31.962Z,99160.44
2019-02-11T08:13:01.278Z,99163.21
2019-02-11T08:15:37.221Z,99176.52
2019-02-11T08:18:06.020Z,99181.69
2019-02-11T08:20:39.818Z,99196.28
2019-02-11T08:23:13.210Z,99199.52
2019-02-11T08:25:40.966Z,99195.19
2019-02-11T08:28:19.499Z,99215.89
2019-02-11T08:30:51.898Z,99235.64
2019-02-11T08:33:30.458Z,99249.13
2019-02-11T08:36:02.523Z,99256.85
2019-02-11T08:38:32.613Z,99262.94
2019-02-11T08:41:05.602Z,99271.22
2019-02-11T08:43:36.809Z,99278.09
2019-02-11T08:46:07.704Z,99287.59
2019-02-11T08:48:38.050Z,99294.62
2019-02-11T08:51:10.935Z,99305.16
2019-02-11T08:53:41.750Z,99304.99
2019-02-11T08:56:11.751Z,99308.81
2019-02-11T08:58:41.266Z,99320.33
2019-02-11T09:01:11.783Z,99324.09
2019-02-11T09:03:43.900Z,99327.25
2019-02-11T09:06:13.315Z,99334.66
2019-02-11T09:08:42.627Z,99342.53
2019-02-11T09:11:11.997Z,99351.79
2019-02-11T09:13:41.339Z,99349.31
2019-02-11T09:16:19.525Z,99359.10
2019-02-11T09:18:53.127Z,99356.31
2019-02-11T09:21:22.571Z,99366.94
2019-02-11T09:23:56.855Z,99361.42
2019-02-11T09:26:28.150Z,99369.50
2019-02-11T09:29:08.943Z,99367.75
2019-02-11T09:31:40.019Z,99378.41
2019-02-11T09:34:11.445Z,99388.50
2019-02-11T09:36:42.769Z,99393.59
2019-02-11T09:39:14.173Z,99395.66
2019-02-11T09:41:43.498Z,99399.80
2019-02-11T09:44:12.874Z,99409.26
2019-02-11T09:46:42.285Z,99415.73
2019-02-11T09:49:11.634Z,99427.20
2019-02-11T09:51:43.493Z,99424.91
2019-02-11T09:54:12.849Z,99428.43
2019-02-11T09:56:42.222Z,99436.66
2019-02-11T09:59:11.588Z,99428.97
2019-02-11T10:01:40.942Z,99439.90
2019-02-11T10:04:10.307Z,99438.88
2019-02-11T10:06:39.627Z,99437.78
2019-02-11T10:09:08.989Z,99439.97
2019-02-11T10:11:38.307Z,99444.19
2019-02-11T10:14:07.666Z,99442.27
2019-02-11T10:16:36.988Z,99451.58
2019-02-11T10:19:06.328Z,99451.36
2019-02-11T10:21:35.644Z,99458.66
2019-02-11T10:24:06.308Z,99456.61
2019-02-11T10:26:35.793Z,99462.78
2019-02-11T10:29:05.150Z,99472.00
2019-02-11T10:31:34.482Z,99478.91
2019-02-11T10:34:04.461Z,99479.79
2019-02-11T10:36:33.777Z,99480.71
2019-02-11T10:39:03.837Z,99484.61
2019-02-11T10:41:38.993Z,99487.58
2019-02-11T10:44:18.434Z,99486.27
2019-02-11T10:46:46.163Z,99502.23
2019-02-11T10:49:21.513Z,99506.61
2019-02-11T10:51:55.812Z,99504.01
2019-02-11T10:54:25.274Z,99512.48
2019-02-11T10:56:54.588Z,99516.12
2019-02-11T10:59:23.958Z,99521.64
2019-02-11T11:01:54.939Z,99532.57
2019-02-11T11:04:24.310Z,99530.92
2019-02-11T11:06:53.662Z,99527.95
2019-02-11T11:09:23.024Z,99528.79
2019-02-11T11:11:52.377Z,99533.52
2019-02-11T11:14:21.766Z,99551.85
2019-02-11T11:16:51.147Z,99538.08
2019-02-11T11:19:20.464Z,99553.79
2019-02-11T11:21:49.837Z,99554.05
2019-02-11T11:24:19.172Z,99563.65
2019-02-11T11:26:48.530Z,99556.58
2019-02-11T11:29:19.219Z,99555.33
2019-02-11T11:31:49.238Z,99572.86
2019-02-11T11:34:22.757Z,99568.58
2019-02-11T11:36:57.659Z,99567.28
2019-02-11T11:39:27.156Z,99580.41
2019-02-11T11:41:59.034Z,99583.77
2019-02-11T11:44:33.539Z,99598.05
2019-02-11T11:47:04.854Z,99598.70
2019-02-11T11:49:38.128Z,99604.16
2019-02-11T11:52:07.780Z,99603.08
2019-02-11T11:54:37.107Z,99598.20
2019-02-11T11:57:07.989Z,99601.44
2019-02-11T11:59:37.305Z,99597.72
2019-02-11T12:02:06.663Z,99600.66
2019-02-11T12:04:35.979Z,99612.99
2019-02-11T12:07:05.363Z,99623.47
2019-02-11T12:09:34.731Z,99632.33
2019-02-11T12:12:04.089Z,99631.42
2019-02-11T12:14:34.421Z,99637.92
2019-02-11T12:17:03.735Z,99651.55
2019-02-11T12:19:33.250Z,99642.56
2019-02-11T12:22:02.634Z,99647.17
2019-02-11T12:24:31.995Z,99653.06
2019-02-11T12:27:01.312Z,99656.16
2019-02-11T12:29:30.852Z,99659.97
2019-02-11T12:32:00.164Z,99675.63
2019-02-11T12:34:29.904Z,99681.45
2019-02-11T12:36:59.212Z,99674.62
2019-02-11T12:39:28.585Z,99682.60
2019-02-11T12:41:57.896Z,99690.31
2019-02-11T12:44:27.277Z,99692.38
2019-02-11T12:47:12.778Z,99703.30
2019-02-11T12:49:27.656Z,99718.61
2019-02-11T12:51:56.971Z,99711.94
2019-02-11T12:54:26.329Z,99702.63
2019-02-11T12:56:55.645Z,99704.91
2019-02-11T12:59:25.144Z,99711.55
2019-02-11T13:01:58.504Z,99697.61
2019-02-11T13:04:28.494Z,99703.72
2019-02-11T13:07:07.867Z,99701.61
2019-02-11T13:09:43.279Z,99709.69
2019-02-11T13:12:12.613Z,99717.86
2019-02-11T13:14:41.984Z,99714.60
2019-02-11T13:17:15.467Z,99726.60
2019-02-11T13:19:42.950Z,99725.95
2019-02-11T13:22:12.520Z,99735.32
2019-02-11T13:24:41.885Z,99744.50
2019-02-11T13:27:11.232Z,99747.86
2019-02-11T13:29:40.543Z,99747.48
2019-02-11T13:32:10.769Z,99749.84
2019-02-11T13:34:40.295Z,99756.80
2019-02-11T13:37:12.659Z,99771.46
2019-02-11T13:39:41.968Z,99786.48
2019-02-11T13:42:11.322Z,99773.42
2019-02-11T13:44:40.645Z,99779.44
2019-02-11T13:47:09.986Z,99780.00
2019-02-11T13:49:39.325Z,99787.61
2019-02-11T13:52:08.664Z,99791.12
2019-02-11T13:54:37.994Z,99793.91
2019-02-11T13:57:07.351Z,99790.31
2019-02-11T13:59:36.752Z,99799.68
2019-02-11T14:02:06.129Z,99806.70
2019-02-11T14:04:35.425Z,99808.66
2019-02-11T14:07:04.933Z,99811.18
2019-02-11T14:09:34.272Z,99821.27
2019-02-11T14:12:06.032Z,99825.92
2019-02-11T14:14:39.806Z,99837.52
2019-02-11T14:17:15.888Z,99842.14
2019-02-11T14:19:54.229Z,99845.66
2019-02-11T14:22:23.577Z,99860.51
2019-02-11T14:24:53.867Z,99874.97
2019-02-11T14:27:23.223Z,99872.83
2019-02-11T14:29:52.550Z,99878.02
2019-02-11T14:32:21.961Z,99898.70
2019-02-11T14:34:51.270Z,99908.31
2019-02-11T14:37:20.575Z,99907.27
2019-02-11T14:39:49.928Z,99918.66
2019-02-11T14:42:19.247Z,99928.78
2019-02-11T14:44:48.627Z,99936.18
2019-02-11T14:47:18.233Z,99949.61
2019-02-11T14:49:47.556Z,99959.38
2019-02-11T14:52:16.885Z,99934.78
2019-02-11T14:54:47.799Z,99943.16
2019-02-11T14:57:17.187Z,99953.09
2019-02-11T14:59:46.666Z,99953.84
2019-02-11T15:02:16.466Z,99959.80
2019-02-11T15:04:45.808Z,99958.98
2019-02-11T15:07:15.243Z,99961.45
2019-02-11T15:09:44.637Z,99963.27
2019-02-11T15:12:13.958Z,99973.61
2019-02-11T15:14:43.315Z,99980.84
2019-02-11T15:17:12.648Z,100001.12
2019-02-11T15:19:42.014Z,99990.82
2019-02-11T15:22:11.348Z,100002.84
2019-02-11T15:24:40.704Z,99997.82
2019-02-11T15:27:17.043Z,100003.17
2019-02-11T15:29:41.118Z,100002.33
2019-02-11T15:32:10.468Z,100017.30
2019-02-11T15:34:39.863Z,100025.07
2019-02-11T15:37:09.197Z,100026.03
2019-02-11T15:39:38.531Z,100042.94
2019-02-11T15:42:07.889Z,100055.02
2019-02-11T15:44:37.222Z,100058.66
2019-02-11T15:47:06.585Z,100074.97
2019-02-11T15:49:35.920Z,100072.77
2019-02-11T15:52:05.275Z,100078.41
2019-02-11T15:54:34.611Z,100084.73
2019-02-11T15:57:03.964Z,100089.23
2019-02-11T15:59:33.283Z,100086.73
2019-02-11T16:02:02.636Z,100106.91
2019-02-11T16:04:31.973Z,100106.16
2019-02-11T16:07:01.339Z,100112.39
2019-02-11T16:09:30.667Z,100119.72
2019-02-11T16:12:00.118Z,100135.56
2019-02-11T16:14:29.435Z,100137.70
2019-02-11T16:16:58.800Z,100144.94
2019-02-11T16:19:28.137Z,100152.71
2019-02-11T16:21:57.507Z,100160.63
2019-02-11T16:24:26.833Z,100161.92
2019-02-11T16:26:56.202Z,100164.91
2019-02-11T16:29:25.544Z,100168.80
2019-02-11T16:32:00.520Z,100174.12
2019-02-11T16:34:26.216Z,100182.15
2019-02-11T16:36:55.586Z,100191.72
2019-02-11T16:39:24.929Z,100186.55
2019-02-11T16:41:54.470Z,100195.76
2019-02-11T16:44:23.796Z,100196.30
2019-02-11T16:46:53.174Z,100197.14
2019-02-11T16:49:22.505Z,100211.45
2019-02-11T16:51:51.901Z,100217.78
2019-02-11T16:54:21.229Z,100225.34
2019-02-11T16:56:50.587Z,100219.37
2019-02-11T16:59:19.940Z,100231.95
2019-02-11T17:01:49.467Z,100234.05
2019-02-11T17:04:18.819Z,100233.37
2019-02-11T17:06:48.222Z,100247.20
2019-02-11T17:09:17.760Z,100254.94
2019-02-11T17:11:47.084Z,100255.94
2019-02-11T17:14:16.591Z,100258.61
2019-02-11T17:16:45.919Z,100266.83
2019-02-11T17:19:15.684Z,100269.29
2019-02-11T17:21:45.231Z,100277.19
2019-02-11T17:24:14.588Z,100283.66
2019-02-11T17:26:43.921Z,100286.65
2019-02-11T17:29:13.284Z,100292.72
2019-02-11T17:31:42.621Z,100303.39
2019-02-11T17:34:11.976Z,100313.83
2019-02-11T17:36:41.295Z,100313.20
2019-02-11T17:39:10.955Z,100322.17
2019-02-11T17:41:40.282Z,100331.09
2019-02-11T17:44:09.637Z,100330.41
2019-02-11T17:46:38.967Z,100325.92
2019-02-11T17:49:08.320Z,100336.36
2019-02-11T17:51:37.658Z,100333.77
2019-02-11T17:54:07.007Z,100348.84
2019-02-11T17:56:36.339Z,100349.30
2019-02-11T17:59:05.713Z,100354.34
2019-02-11T18:01:35.046Z,100356.93
2019-02-11T18:04:04.413Z,100365.14
2019-02-11T18:06:33.779Z,100372.45
2019-02-11T18:09:04.580Z,100365.59
2019-02-11T18:11:33.933Z,100379.83
2019-02-11T18:14:03.254Z,100382.94
2019-02-11T18:16:32.623Z,100384.23
2019-02-11T18:19:01.949Z,100398.15
2019-02-11T18:21:32.789Z,100406.28
2019-02-11T18:24:02.210Z,100401.44
2019-02-11T18:26:31.570Z,100407.38
2019-02-11T18:29:00.898Z,100419.47
2019-02-11T18:31:30.261Z,100428.08
2019-02-11T18:33:59.598Z,100428.08
2019-02-11T18:36:28.972Z,100430.55
2019-02-11T18:38:58.300Z,100436.17
2019-02-11T18:41:27.673Z,100447.49
2019-02-11T18:43:56.999Z,100452.02
2019-02-11T18:46:26.372Z,100452.99
2019-02-11T18:48:55.734Z,100460.80
2019-02-11T18:51:25.103Z,100460.10
2019-02-11T18:53:54.424Z,100459.06
2019-02-11T18:56:23.779Z,100463.86
2019-02-11T18:58:53.103Z,100459.30
2019-02-11T19:01:22.458Z,100456.52
2019-02-11T19:03:51.786Z,100461.16
2019-02-11T19:06:21.137Z,100459.38
2019-02-11T19:08:50.512Z,100463.27
2019-02-11T19:11:19.839Z,100480.97
2019-02-11T19:13:49.494Z,100490.02
2019-02-11T19:16:18.845Z,100493.77
2019-02-11T19:18:48.210Z,100486.34
2019-02-11T19:21:17.529Z,100496.20
2019-02-11T19:23:47.500Z,100505.17
2019-02-11T19:26:16.825Z,100516.72
2019-02-11T19:28:46.586Z,100529.62
2019-02-11T19:31:15.929Z,100535.39
2019-02-11T19:33:45.653Z,100531.06
2019-02-11T19:36:15.357Z,100547.83
2019-02-11T19:38:44.738Z,100543.25
2019-02-11T19:41:14.061Z,100546.36
2019-02-11T19:43:43.409Z,100562.27
2019-02-11T19:46:12.731Z,100565.13
2019-02-11T19:48:42.084Z,100568.00
2019-02-11T19:51:11.418Z,100571.21
2019-02-11T19:53:40.783Z,100577.23
2019-02-11T19:56:10.115Z,100573.35
2019-02-11T20:01:29.776Z,100583.36
2019-02-11T20:04:07.037Z,100573.50
2019-02-11T20:06:30.156Z,100587.72
2019-02-11T20:08:59.525Z,100602.06
2019-02-11T20:11:28.866Z,100587.06
2019-02-11T20:13:58.221Z,100588.69
2019-02-11T20:16:27.556Z,100604.42
2019-02-11T20:18:56.914Z,100614.84
2019-02-11T20:21:26.249Z,100612.70
2019-02-11T20:23:55.615Z,100627.77
2019-02-11T20:26:24.946Z,100630.40
2019-02-11T20:28:54.309Z,100639.30
2019-02-11T20:31:23.650Z,100638.90
2019-02-11T20:33:53.084Z,100645.36
2019-02-11T20:36:23.314Z,100664.88
2019-02-11T20:38:52.679Z,100657.78
2019-02-11T20:41:22.004Z,100671.53
2019-02-11T20:43:51.360Z,100666.73
2019-02-11T20:46:20.693Z,100676.75
2019-02-11T20:48:50.414Z,100684.69
2019-02-11T20:51:19.745Z,100677.92
2019-02-11T20:53:49.473Z,100686.60
2019-02-11T20:56:18.802Z,100688.05
2019-02-11T20:58:48.160Z,100696.36
2019-02-11T21:01:17.521Z,100701.42
2019-02-11T21:03:46.938Z,100702.89
2019-02-11T21:06:16.288Z,100711.71
2019-02-11T21:08:45.609Z,100708.20
2019-02-11T21:11:15.259Z,100706.54
2019-02-11T21:13:45.798Z,100715.56
2019-02-11T21:16:15.677Z,100709.81
2019-02-11T21:18:45.005Z,100721.86
2019-02-11T21:21:16.000Z,100715.46
2019-02-11T21:23:45.323Z,100720.53
2019-02-11T21:26:14.749Z,100716.65
2019-02-11T21:28:44.074Z,100719.06
2019-02-11T21:31:14.442Z,100727.12
2019-02-11T21:33:43.768Z,100733.29
2019-02-11T21:36:12.936Z,100729.71
2019-02-11T21:38:42.264Z,100739.14
2019-02-11T21:41:11.618Z,100730.59
2019-02-11T21:43:40.947Z,100736.72
2019-02-11T21:46:10.306Z,100741.94
2019-02-11T21:48:39.673Z,100736.28
2019-02-11T21:51:09.997Z,100736.28
2019-02-11T21:53:40.339Z,100737.84
2019-02-11T21:56:09.705Z,100738.42
2019-02-11T21:58:39.392Z,100736.62
2019-02-11T22:01:08.767Z,100742.34
2019-02-11T22:03:38.105Z,100756.53
2019-02-11T22:06:07.641Z,100757.34
2019-02-11T22:08:37.230Z,100759.32
2019-02-11T22:11:06.593Z,100760.51
2019-02-11T22:13:35.914Z,100764.42
2019-02-11T22:16:05.268Z,100778.31
2019-02-11T22:18:34.591Z,100776.33
2019-02-11T22:21:03.960Z,100781.09
2019-02-11T22:23:33.279Z,100789.80
2019-02-11T22:26:02.640Z,100787.70
2019-02-11T22:28:32.183Z,100786.91
2019-02-11T22:31:01.607Z,100809.42
2019-02-11T22:33:30.928Z,100807.22
2019-02-11T22:36:00.297Z,100816.84
2019-02-11T22:38:29.623Z,100827.62
2019-02-11T22:40:58.995Z,100828.56
2019-02-11T22:43:28.323Z,100834.14
2019-02-11T22:45:57.692Z,100844.08
2019-02-11T22:48:27.022Z,100862.67
2019-02-11T22:50:56.450Z,100860.94
2019-02-11T22:53:25.796Z,100855.52
2019-02-11T22:55:55.156Z,100865.39
2019-02-11T22:58:24.477Z,100863.66
2019-02-11T23:00:56.588Z,100871.94
2019-02-11T23:03:25.912Z,100873.89
2019-02-11T23:05:55.264Z,100882.50
2019-02-11T23:08:24.625Z,100883.06
2019-02-11T23:10:53.960Z,100888.81
2019-02-11T23:13:23.311Z,100892.28
2019-02-11T23:15:52.632Z,100892.02
2019-02-11T23:18:21.986Z,100904.09
2019-02-11T23:20:52.304Z,100904.59
2019-02-11T23:23:21.739Z,100907.58
2019-02-11T23:25:51.066Z,100918.56
2019-02-11T23:28:20.420Z,100918.73
2019-02-11T23:30:49.759Z,100922.75
2019-02-11T23:33:19.613Z,100926.77
2019-02-11T23:35:48.948Z,100929.11
2019-02-11T23:38:18.319Z,100932.66
2019-02-11T23:40:47.646Z,100936.25
2019-02-11T23:43:17.598Z,100937.34
2019-02-11T23:45:46.914Z,100944.40
2019-02-11T23:48:16.617Z,100947.03
2019-02-11T23:50:45.945Z,100948.42
2019-02-11T23:53:15.748Z,100950.70
2019-02-11T23:55:45.560Z,100951.81
2019-02-11T23:58:15.983Z,100945.87
